• Join FlightAware (Why Join?)
  • Login
  • US Flag 
Rudolph Flight #1: Arrived! 
07:18AM EST


 

Airport Tracker/Info


-or-


 

Live Flight TrackerFlight Track Log ✈ SWA2236 ✈ 09-Jul-2013 ✈ KJAX - KBWI

Flight Track Log - Related Links

Times and Time Zones

All times are in EDT time to prevent confusion due to time zone crossing. See the SWA2236 flight status page for this flight to view local times or setup timezone preferences in your user account.

Time Position Orientation Groundspeed Altitude Reporting Facility
EDT Latitude Longitude Course Direction KTS MPH feet Rate Location/Type
07:48PM 30.5256 -81.6314 62° Northeast 203 234 2,300  Level Jacksonville Center
07:49PM 30.5861 -81.6353 357° North 227 261 5,200 2,640 Climbing Jacksonville Center
07:50PM 30.6133 -81.6397 352° North 225 259 6,400 2,700 Climbing Jacksonville Center
07:51PM 30.6800 -81.6461 355° North 237 273 9,400 3,000 Climbing Jacksonville Center
07:52PM 30.7469 -81.6550 353° North 237 273 12,400 2,520 Climbing Jacksonville Center
07:53PM 30.8242 -81.6467 North 250 288 14,500 2,100 Climbing Jacksonville Center
07:54PM 30.9178 -81.6139 17° North 300 345 16,600 2,160 Climbing Jacksonville Center
07:55PM 31.0178 -81.5811 16° North 336 387 18,900 2,340 Climbing Jacksonville Center
07:56PM 31.1217 -81.5481 15° North 362 417 21,300 2,280 Climbing Jacksonville Center
07:57PM 31.2342 -81.5100 16° North 391 450 23,500 2,160 Climbing Jacksonville Center
07:58PM 31.3547 -81.4669 17° North 405 466 25,700 1,980 Climbing Jacksonville Center
07:59PM 31.4733 -81.4261 16° North 434 499 27,500 1,740 Climbing Jacksonville Center
08:00PM 31.5794 -81.3928 15° North 434 499 29,200 1,920 Climbing Jacksonville Center
08:01PM 31.7103 -81.3492 16° North 440 506 31,400 1,860 Climbing Jacksonville Center
08:02PM 31.8142 -81.2986 22° Northeast 440 506 33,000 1,500 Climbing Jacksonville Center
08:03PM 31.9153 -81.2161 35° Northeast 430 495 34,500 1,800 Climbing Jacksonville Center
08:04PM 32.0103 -81.1261 39° Northeast 435 501 36,600 1,200 Climbing Jacksonville Center
08:05PM 32.1069 -81.0336 39° Northeast 440 506 37,000 900 Climbing Jacksonville Center
08:06PM 32.2100 -80.9503 34° Northeast 425 489 38,500 960 Climbing Jacksonville Center
08:07PM 32.2925 -80.8775 37° Northeast 413 475 39,000 240 Climbing Jacksonville Center
08:08PM 32.3933 -80.7842 38° Northeast 408 470 39,000  Level Jacksonville Center
08:09PM 32.4878 -80.7006 37° Northeast 408 470 39,000  Level Jacksonville Center
08:10PM 32.5681 -80.6272 38° Northeast 417 480 39,000  Level Jacksonville Center
08:11PM 32.6728 -80.5308 38° Northeast 427 491 39,000  Level Jacksonville Center
08:12PM 32.7628 -80.4419 40° Northeast 422 486 39,000  Level Jacksonville Center
08:13PM 32.8572 -80.3553 38° Northeast 422 486 39,000  Level Jacksonville Center
08:14PM 32.9453 -80.2761 37° Northeast 427 491 39,000  Level Jacksonville Center
08:15PM 33.0408 -80.1594 46° Northeast 436 502 39,000  Level Jacksonville Center
08:16PM 33.1478 -80.0867 30° Northeast 440 506 39,000  Level Jacksonville Center
08:17PM 33.2397 -80.0017 38° Northeast 434 499 39,000  Level Jacksonville Center
08:18PM 33.3317 -79.9167 38° Northeast 428 493 39,000  Level Jacksonville Center
08:19PM 33.4236 -79.8292 38° Northeast 428 493 39,000  Level Jacksonville Center
08:20PM 33.5175 -79.7386 39° Northeast 428 493 39,000  Level Jacksonville Center
08:21PM 33.6092 -79.6531 38° Northeast 428 493 39,000  Level Jacksonville Center
08:22PM 33.7028 -79.5647 38° Northeast 428 493 39,000  Level Jacksonville Center
08:23PM 33.7964 -79.4764 38° Northeast 428 493 39,000  Level Jacksonville Center
08:24PM 33.8758 -79.4006 38° Northeast 423 487 39,000  Level Jacksonville Center
08:25PM 33.9714 -79.3117 38° Northeast 418 481 39,000  Level Jacksonville Center
08:26PM 34.0647 -79.2228 38° Northeast 423 487 39,000  Level Jacksonville Center
08:28PM 34.2792 -79.0175 38° Northeast 428 493 39,000  Level Washington Center
08:29PM 34.3817 -78.9386 32° Northeast 428 493 39,000  Level Washington Center
08:30PM 34.4839 -78.8647 31° Northeast 433 498 39,000  Level Washington Center
08:31PM 34.6047 -78.7964 25° Northeast 428 493 39,000  Level Washington Center
08:32PM 34.7125 -78.7453 21° North 420 483 39,000  Level Washington Center
08:33PM 34.8203 -78.6911 22° Northeast 417 480 39,000  Level Washington Center
08:34PM 34.9281 -78.6369 22° Northeast 411 473 39,000  Level Washington Center
08:35PM 35.0358 -78.5828 22° Northeast 411 473 39,000  Level Washington Center
08:36PM 35.1414 -78.5308 22° Northeast 411 473 39,000  Level Washington Center
08:37PM 35.2469 -78.4761 23° Northeast 411 473 39,000  Level Washington Center
08:38PM 35.3528 -78.4214 23° Northeast 417 480 39,000  Level Washington Center
08:39PM 35.4625 -78.3614 24° Northeast 417 480 39,000  Level Washington Center
08:40PM 35.5722 -78.3117 20° North 422 486 39,000 -360 Level Washington Center
08:41PM 35.6797 -78.2617 21° North 415 478 38,300 -840 Descending Washington Center
08:42PM 35.7831 -78.2114 22° Northeast 410 472 37,400 -960 Descending Washington Center
08:43PM 35.8928 -78.1558 22° Northeast 415 478 36,400 -960 Descending Washington Center
08:44PM 36.0047 -78.1006 22° Northeast 415 478 35,500 -900 Descending Washington Center
08:45PM 36.1164 -78.0450 22° Northeast 420 483 34,600 -960 Descending Washington Center
08:46PM 36.2281 -77.9867 23° Northeast 420 483 33,600 -1,380 Descending Washington Center
08:47PM 36.3419 -77.9283 22° Northeast 420 483 32,000 -2,340 Descending Washington Center
08:48PM 36.4411 -77.8744 24° Northeast 425 489 29,100 -1,500 Descending Washington Center
08:49PM 36.5497 -77.8594 North 420 483 29,000 -60 Descending Washington Center
08:50PM 36.6575 -77.9067 341° North 382 440 29,000  Level Washington Center
08:51PM 36.7628 -77.9564 339° North 391 450 29,000 -360 Level Washington Center
08:52PM 36.8728 -77.9858 348° North 396 456 28,300 -540 Descending Washington Center
08:53PM 36.9622 -77.9000 37° Northeast 359 413 28,000 -180 Descending Washington Center
08:54PM 37.0494 -77.8089 40° Northeast 373 429 28,000  Level Washington Center
08:55PM 37.1367 -77.7125 41° Northeast 395 455 28,000 -480 Level Washington Center
08:56PM 37.2217 -77.6211 41° Northeast 401 461 27,100 -540 Descending Washington Center
08:57PM 37.3131 -77.5242 40° Northeast 412 474 27,000 -780 Descending Washington Center
08:58PM 37.4083 -77.4219 40° Northeast 424 488 25,600 -1,980 Descending Washington Center
08:59PM 37.5036 -77.3275 38° Northeast 429 494 23,100 -1,320 Descending Washington Center
09:00PM 37.6167 -77.2986 11° North 414 476 23,000 -60 Descending Washington Center
09:01PM 37.7319 -77.2722 10° North 409 471 23,000 -480 Level Washington Center
09:02PM 37.8469 -77.2486 North 409 471 22,100 -1,020 Descending Washington Center
09:03PM 37.9556 -77.2272 North 409 471 21,000 -1,140 Descending Washington Center
09:04PM 38.0769 -77.2036 North 409 471 19,900 -1,080 Descending Washington Center
09:05PM 38.1878 -77.1794 10° North 409 471 18,900 -1,380 Descending Washington Center
09:06PM 38.2819 -77.1575 10° North 402 463 17,300 -2,040 Descending Washington Center
09:07PM 38.3864 -77.1281 12° North 372 428 15,000 -1,980 Descending Washington Center
09:08PM 38.4564 -77.0472 42° Northeast 332 382 13,400 -1,500 Descending Washington Center
09:09PM 38.5261 -76.9636 43° Northeast 332 382 12,000 -1,260 Descending Washington Center
09:10PM 38.5917 -76.8853 43° Northeast 332 382 11,000 -1,020 Descending Washington Center
09:11PM 38.6569 -76.8067 43° Northeast 320 368 10,000 -1,020 Descending Washington Center
09:12PM 38.7119 -76.7303 47° Northeast 305 351 9,000 -1,200 Descending Washington Center
09:13PM 38.7503 -76.6431 61° Northeast 287 330 7,700 -1,380 Descending Washington Center
09:14PM 38.7833 -76.5667 61° Northeast 287 330 6,700 -1,260 Descending Potomac TRACON
09:15PM 38.8500 -76.5167 30° Northeast 273 314 5,500 -1,020 Descending Potomac TRACON
09:16PM 38.9167 -76.5167 360° North 261 300 4,600 -780 Descending Potomac TRACON
09:17PM 38.9833 -76.5000 11° North 234 269 4,000 -720 Descending Potomac TRACON
09:18PM 39.0333 -76.5500 322° Northwest 212 244 3,200 -600 Descending Potomac TRACON
09:19PM 39.0833 -76.5833 333° Northwest 175 201 2,800 -960 Descending Potomac TRACON
09:20PM 39.1167 -76.6167 322° Northwest 160 184 1,400 -1,200 Descending Potomac TRACON
09:21PM 39.1500 -76.6500 322° Northwest 151 174 500 -840 Descending Potomac TRACON
09:23PM 39.1667 -76.6667 339° North  Level FlightAware Approximate
09:30PM 39.1754 -76.6683 339° North  Level Estimated
09:31PM 39.1754 -76.6683 339° North  Level Estimated
09:32PM 39.1754 -76.6683 339° North  Level Estimated